sensor_id;sensor_type;location;lat;lon;timestamp;pressure;altitude;pressure_sealevel;temperature;humidity
39891;BME280;25564;53.312;9.790;2023-11-19T00:02:04;100144.56;;;5.92;100.00
39891;BME280;25564;53.312;9.790;2023-11-19T00:04:36;100110.41;;;5.78;100.00
39891;BME280;25564;53.312;9.790;2023-11-19T00:07:11;100073.72;;;5.59;100.00
39891;BME280;25564;53.312;9.790;2023-11-19T00:09:44;100110.38;;;5.84;100.00
39891;BME280;25564;53.312;9.790;2023-11-19T00:12:18;100051.72;;;5.67;100.00
39891;BME280;25564;53.312;9.790;2023-11-19T00:14:49;100082.28;;;5.86;100.00
39891;BME280;25564;53.312;9.790;2023-11-19T00:17:21;100072.63;;;5.83;100.00
39891;BME280;25564;53.312;9.790;2023-11-19T00:19:53;100055.06;;;5.85;100.00
39891;BME280;25564;53.312;9.790;2023-11-19T00:22:26;100083.03;;;6.02;100.00
39891;BME280;25564;53.312;9.790;2023-11-19T00:24:58;100021.78;;;5.78;100.00
39891;BME280;25564;53.312;9.790;2023-11-19T00:27:29;100039.25;;;5.92;100.00
39891;BME280;25564;53.312;9.790;2023-11-19T00:30:02;100031.34;;;5.92;100.00
39891;BME280;25564;53.312;9.790;2023-11-19T00:32:36;100029.59;;;5.92;100.00
39891;BME280;25564;53.312;9.790;2023-11-19T00:35:09;100032.19;;;5.97;100.00
39891;BME280;25564;53.312;9.790;2023-11-19T00:37:46;100046.09;;;6.08;100.00
39891;BME280;25564;53.312;9.790;2023-11-19T00:40:18;100018.97;;;6.00;100.00
39891;BME280;25564;53.312;9.790;2023-11-19T00:42:53;100034.72;;;6.06;100.00
39891;BME280;25564;53.312;9.790;2023-11-19T00:45:24;100018.06;;;6.04;100.00
39891;BME280;25564;53.312;9.790;2023-11-19T00:47:55;100017.16;;;6.05;100.00
39891;BME280;25564;53.312;9.790;2023-11-19T00:50:27;100003.19;;;6.00;100.00
39891;BME280;25564;53.312;9.790;2023-11-19T00:52:58;100020.59;;;6.14;100.00
39891;BME280;25564;53.312;9.790;2023-11-19T00:55:29;100010.97;;;6.09;100.00
39891;BME280;25564;53.312;9.790;2023-11-19T00:58:01;100007.44;;;6.13;100.00
39891;BME280;25564;53.312;9.790;2023-11-19T01:00:32;100003.81;;;6.21;100.00
39891;BME280;25564;53.312;9.790;2023-11-19T01:03:04;99992.34;;;6.24;100.00
39891;BME280;25564;53.312;9.790;2023-11-19T01:05:36;99979.16;;;6.26;100.00
39891;BME280;25564;53.312;9.790;2023-11-19T01:08:08;99967.84;;;6.19;100.00
39891;BME280;25564;53.312;9.790;2023-11-19T01:10:40;99945.94;;;6.14;100.00
39891;BME280;25564;53.312;9.790;2023-11-19T01:13:11;99962.41;;;6.30;100.00
39891;BME280;25564;53.312;9.790;2023-11-19T01:15:43;99928.38;;;6.16;100.00
39891;BME280;25564;53.312;9.790;2023-11-19T01:18:14;99929.28;;;6.13;100.00
39891;BME280;25564;53.312;9.790;2023-11-19T01:20:46;99932.69;;;6.21;100.00
39891;BME280;25564;53.312;9.790;2023-11-19T01:23:17;99937.78;;;6.34;100.00
39891;BME280;25564;53.312;9.790;2023-11-19T01:25:48;99951.81;;;6.34;100.00
39891;BME280;25564;53.312;9.790;2023-11-19T01:28:20;99949.16;;;6.36;100.00
39891;BME280;25564;53.312;9.790;2023-11-19T01:30:51;99937.66;;;6.43;100.00
39891;BME280;25564;53.312;9.790;2023-11-19T01:33:23;99902.66;;;6.32;100.00
39891;BME280;25564;53.312;9.790;2023-11-19T01:35:54;99900.97;;;6.26;100.00
39891;BME280;25564;53.312;9.790;2023-11-19T01:38:26;99924.44;;;6.44;100.00
39891;BME280;25564;53.312;9.790;2023-11-19T01:40:58;99908.69;;;6.41;100.00
39891;BME280;25564;53.312;9.790;2023-11-19T01:43:34;99887.72;;;6.32;100.00
39891;BME280;25564;53.312;9.790;2023-11-19T01:46:06;99917.31;;;6.52;100.00
39891;BME280;25564;53.312;9.790;2023-11-19T01:48:45;99908.50;;;6.53;100.00
39891;BME280;25564;53.312;9.790;2023-11-19T01:51:17;99870.13;;;6.34;100.00
39891;BME280;25564;53.312;9.790;2023-11-19T01:53:49;99838.66;;;6.25;100.00
39891;BME280;25564;53.312;9.790;2023-11-19T01:56:20;99870.81;;;6.47;100.00
39891;BME280;25564;53.312;9.790;2023-11-19T01:58:54;99877.66;;;6.60;100.00
39891;BME280;25564;53.312;9.790;2023-11-19T02:01:27;99857.53;;;6.54;100.00
39891;BME280;25564;53.312;9.790;2023-11-19T02:03:58;99859.28;;;6.55;100.00
39891;BME280;25564;53.312;9.790;2023-11-19T02:06:33;99834.75;;;6.50;100.00
39891;BME280;25564;53.312;9.790;2023-11-19T02:09:05;99835.59;;;6.54;100.00
39891;BME280;25564;53.312;9.790;2023-11-19T02:11:42;99846.00;;;6.62;100.00
39891;BME280;25564;53.312;9.790;2023-11-19T02:14:13;99846.84;;;6.64;100.00
39891;BME280;25564;53.312;9.790;2023-11-19T02:16:45;99696.16;;;5.83;100.00
39891;BME280;25564;53.312;9.790;2023-11-19T02:19:19;99818.75;;;6.63;100.00
39891;BME280;25564;53.312;9.790;2023-11-19T02:21:50;99812.63;;;6.61;100.00
39891;BME280;25564;53.312;9.790;2023-11-19T02:24:22;99808.19;;;6.64;100.00
39891;BME280;25564;53.312;9.790;2023-11-19T02:27:10;99808.00;;;6.75;100.00
39891;BME280;25564;53.312;9.790;2023-11-19T02:29:46;99781.84;;;6.63;100.00
39891;BME280;25564;53.312;9.790;2023-11-19T02:32:19;99790.53;;;6.69;100.00
39891;BME280;25564;53.312;9.790;2023-11-19T02:34:50;99792.25;;;6.72;100.00
39891;BME280;25564;53.312;9.790;2023-11-19T02:37:22;99782.50;;;6.77;100.00
39891;BME280;25564;53.312;9.790;2023-11-19T02:39:54;99782.28;;;6.89;100.00
39891;BME280;25564;53.312;9.790;2023-11-19T02:42:25;99743.97;;;6.68;100.00
39891;BME280;25564;53.312;9.790;2023-11-19T02:44:57;99762.06;;;6.88;100.00
39891;BME280;25564;53.312;9.790;2023-11-19T02:47:28;99772.41;;;7.00;100.00
39891;BME280;25564;53.312;9.790;2023-11-19T02:50:01;99756.53;;;7.03;100.00
39891;BME280;25564;53.312;9.790;2023-11-19T02:52:33;99747.78;;;7.01;100.00
39891;BME280;25564;53.312;9.790;2023-11-19T02:55:10;99729.31;;;7.01;100.00
39891;BME280;25564;53.312;9.790;2023-11-19T02:57:44;99732.75;;;7.05;100.00
39891;BME280;25564;53.312;9.790;2023-11-19T03:00:21;99732.56;;;7.14;100.00
39891;BME280;25564;53.312;9.790;2023-11-19T03:02:56;99725.66;;;7.08;100.00
39891;BME280;25564;53.312;9.790;2023-11-19T03:05:31;99700.19;;;7.06;100.00
39891;BME280;25564;53.312;9.790;2023-11-19T03:08:02;99708.81;;;7.15;100.00
39891;BME280;25564;53.312;9.790;2023-11-19T03:10:34;99710.53;;;7.16;100.00
39891;BME280;25564;53.312;9.790;2023-11-19T03:13:11;99717.19;;;7.34;100.00
39891;BME280;25564;53.312;9.790;2023-11-19T03:15:44;99703.19;;;7.31;100.00
39891;BME280;25564;53.312;9.790;2023-11-19T03:18:15;99720.50;;;7.44;100.00
39891;BME280;25564;53.312;9.790;2023-11-19T03:20:47;99722.09;;;7.52;100.00
39891;BME280;25564;53.312;9.790;2023-11-19T03:23:18;99672.09;;;7.45;100.00
39891;BME280;25564;53.312;9.790;2023-11-19T03:25:50;99679.94;;;7.48;100.00
39891;BME280;25564;53.312;9.790;2023-11-19T03:28:21;99690.38;;;7.54;100.00
39891;BME280;25564;53.312;9.790;2023-11-19T03:30:53;99708.53;;;7.69;100.00
39891;BME280;25564;53.312;9.790;2023-11-19T03:33:25;99707.56;;;7.73;100.00
39891;BME280;25564;53.312;9.790;2023-11-19T03:35:59;99695.19;;;7.75;100.00
39891;BME280;25564;53.312;9.790;2023-11-19T03:38:30;99682.75;;;7.80;100.00
39891;BME280;25564;53.312;9.790;2023-11-19T03:41:01;99666.09;;;7.77;100.00
39891;BME280;25564;53.312;9.790;2023-11-19T03:43:33;99658.13;;;7.78;100.00
39891;BME280;25564;53.312;9.790;2023-11-19T03:46:05;99677.91;;;7.99;100.00
39891;BME280;25564;53.312;9.790;2023-11-19T03:48:36;99660.50;;;7.91;100.00
39891;BME280;25564;53.312;9.790;2023-11-19T03:51:09;99665.66;;;7.95;100.00
39891;BME280;25564;53.312;9.790;2023-11-19T03:53:42;99661.97;;;8.02;100.00
39891;BME280;25564;53.312;9.790;2023-11-19T03:56:14;99684.53;;;8.17;100.00
39891;BME280;25564;53.312;9.790;2023-11-19T03:58:45;99701.78;;;8.32;100.00
39891;BME280;25564;53.312;9.790;2023-11-19T04:01:17;99685.06;;;8.31;100.00
39891;BME280;25564;53.312;9.790;2023-11-19T04:03:48;99666.50;;;8.33;100.00
39891;BME280;25564;53.312;9.790;2023-11-19T04:06:22;99688.06;;;8.51;100.00
39891;BME280;25564;53.312;9.790;2023-11-19T04:08:53;99671.25;;;8.54;100.00
39891;BME280;25564;53.312;9.790;2023-11-19T04:11:24;99667.75;;;8.53;100.00
39891;BME280;25564;53.312;9.790;2023-11-19T04:13:56;99660.47;;;8.62;100.00
39891;BME280;25564;53.312;9.790;2023-11-19T04:16:27;99663.66;;;8.74;100.00
39891;BME280;25564;53.312;9.790;2023-11-19T04:19:02;99646.91;;;8.74;100.00
39891;BME280;25564;53.312;9.790;2023-11-19T04:21:33;99652.81;;;8.83;100.00
39891;BME280;25564;53.312;9.790;2023-11-19T04:24:05;99633.41;;;8.84;100.00
39891;BME280;25564;53.312;9.790;2023-11-19T04:26:42;99597.66;;;8.70;100.00
39891;BME280;25564;53.312;9.790;2023-11-19T04:29:16;99622.78;;;8.86;100.00
39891;BME280;25564;53.312;9.790;2023-11-19T04:31:48;99632.06;;;9.01;100.00
39891;BME280;25564;53.312;9.790;2023-11-19T04:34:19;99626.91;;;8.96;100.00
39891;BME280;25564;53.312;9.790;2023-11-19T04:36:51;99611.06;;;8.95;100.00
39891;BME280;25564;53.312;9.790;2023-11-19T04:39:22;99643.03;;;9.18;100.00
39891;BME280;25564;53.312;9.790;2023-11-19T04:41:54;99641.97;;;9.24;100.00
39891;BME280;25564;53.312;9.790;2023-11-19T04:44:26;99634.03;;;9.24;100.00
39891;BME280;25564;53.312;9.790;2023-11-19T04:46:57;99622.53;;;9.25;100.00
39891;BME280;25564;53.312;9.790;2023-11-19T04:49:29;99620.63;;;9.30;100.00
39891;BME280;25564;53.312;9.790;2023-11-19T04:52:01;99646.47;;;9.49;100.00
39891;BME280;25564;53.312;9.790;2023-11-19T04:54:34;99629.72;;;9.49;100.00
39891;BME280;25564;53.312;9.790;2023-11-19T04:57:05;99607.63;;;9.50;100.00
39891;BME280;25564;53.312;9.790;2023-11-19T04:59:37;99594.38;;;9.50;100.00
39891;BME280;25564;53.312;9.790;2023-11-19T05:02:08;99611.56;;;9.65;100.00
39891;BME280;25564;53.312;9.790;2023-11-19T05:04:43;99605.13;;;9.73;100.00
39891;BME280;25564;53.312;9.790;2023-11-19T05:07:15;99624.22;;;9.83;100.00
39891;BME280;25564;53.312;9.790;2023-11-19T05:09:47;99629.09;;;9.97;100.00
39891;BME280;25564;53.312;9.790;2023-11-19T05:12:18;99600.13;;;9.91;100.00
39891;BME280;25564;53.312;9.790;2023-11-19T05:14:49;99619.97;;;10.05;100.00
39891;BME280;25564;53.312;9.790;2023-11-19T05:17:22;99606.78;;;10.04;100.00
39891;BME280;25564;53.312;9.790;2023-11-19T05:19:53;99588.06;;;10.08;100.00
39891;BME280;25564;53.312;9.790;2023-11-19T05:22:24;99589.66;;;10.14;100.00
39891;BME280;25564;53.312;9.790;2023-11-19T05:24:57;99588.72;;;10.15;100.00
39891;BME280;25564;53.312;9.790;2023-11-19T05:27:28;99605.94;;;10.30;100.00
39891;BME280;25564;53.312;9.790;2023-11-19T05:29:59;99591.84;;;10.28;100.00
39891;BME280;25564;53.312;9.790;2023-11-19T05:32:31;99590.69;;;10.36;100.00
39891;BME280;25564;53.312;9.790;2023-11-19T05:35:03;99612.03;;;10.57;100.00
39891;BME280;25564;53.312;9.790;2023-11-19T05:37:34;99611.06;;;10.59;100.00
39891;BME280;25564;53.312;9.790;2023-11-19T05:40:07;99585.63;;;10.54;100.00
39891;BME280;25564;53.312;9.790;2023-11-19T05:42:45;99610.47;;;10.76;100.00
39891;BME280;25564;53.312;9.790;2023-11-19T05:45:17;99587.72;;;10.69;100.00
39891;BME280;25564;53.312;9.790;2023-11-19T05:47:48;99610.06;;;10.87;100.00
39891;BME280;25564;53.312;9.790;2023-11-19T05:50:20;99592.53;;;10.82;100.00
39891;BME280;25564;53.312;9.790;2023-11-19T05:52:51;99590.56;;;10.88;100.00
39891;BME280;25564;53.312;9.790;2023-11-19T05:55:24;99597.56;;;10.90;100.00
39891;BME280;25564;53.312;9.790;2023-11-19T05:57:56;99606.09;;;10.98;100.00
39891;BME280;25564;53.312;9.790;2023-11-19T06:00:27;99591.31;;;10.91;100.00
39891;BME280;25564;53.312;9.790;2023-11-19T06:02:58;99621.75;;;11.06;100.00
39891;BME280;25564;53.312;9.790;2023-11-19T06:05:30;99626.03;;;11.10;100.00
39891;BME280;25564;53.312;9.790;2023-11-19T06:08:01;99601.16;;;11.12;100.00
39891;BME280;25564;53.312;9.790;2023-11-19T06:10:32;99582.31;;;10.95;100.00
39891;BME280;25564;53.312;9.790;2023-11-19T06:13:04;99612.91;;;11.05;100.00
39891;BME280;25564;53.312;9.790;2023-11-19T06:15:36;99592.13;;;10.93;100.00
39891;BME280;25564;53.312;9.790;2023-11-19T06:18:08;99580.81;;;10.88;100.00
39891;BME280;25564;53.312;9.790;2023-11-19T06:20:40;99609.34;;;11.06;100.00
39891;BME280;25564;53.312;9.790;2023-11-19T06:23:14;99591.91;;;10.99;100.00
39891;BME280;25564;53.312;9.790;2023-11-19T06:25:45;99593.41;;;11.06;100.00
39891;BME280;25564;53.312;9.790;2023-11-19T06:28:17;99591.69;;;11.05;100.00
39891;BME280;25564;53.312;9.790;2023-11-19T06:30:48;99600.47;;;11.07;100.00
39891;BME280;25564;53.312;9.790;2023-11-19T06:33:20;99582.78;;;11.06;100.00
39891;BME280;25564;53.312;9.790;2023-11-19T06:35:51;99569.16;;;10.92;100.00
39891;BME280;25564;53.312;9.790;2023-11-19T06:38:23;99618.47;;;11.23;100.00
39891;BME280;25564;53.312;9.790;2023-11-19T06:40:54;99600.47;;;11.07;100.00
39891;BME280;25564;53.312;9.790;2023-11-19T06:43:26;99570.09;;;10.91;100.00
39891;BME280;25564;53.312;9.790;2023-11-19T06:45:57;99627.31;;;11.23;100.00
39891;BME280;25564;53.312;9.790;2023-11-19T06:48:28;99599.53;;;11.08;100.00
39891;BME280;25564;53.312;9.790;2023-11-19T06:51:00;99616.09;;;11.15;100.00
39891;BME280;25564;53.312;9.790;2023-11-19T06:53:31;99621.25;;;11.20;100.00
39891;BME280;25564;53.312;9.790;2023-11-19T06:56:03;99610.03;;;11.11;100.00
39891;BME280;25564;53.312;9.790;2023-11-19T06:58:40;99633.47;;;11.24;100.00
39891;BME280;25564;53.312;9.790;2023-11-19T07:01:11;99601.38;;;11.06;100.00
39891;BME280;25564;53.312;9.790;2023-11-19T07:03:44;99601.25;;;11.09;100.00
39891;BME280;25564;53.312;9.790;2023-11-19T07:06:17;99628.28;;;11.21;100.00
39891;BME280;25564;53.312;9.790;2023-11-19T07:08:49;99633.53;;;11.22;100.00
39891;BME280;25564;53.312;9.790;2023-11-19T07:11:20;99634.22;;;11.27;100.00
39891;BME280;25564;53.312;9.790;2023-11-19T07:13:52;99621.25;;;11.20;100.00
39891;BME280;25564;53.312;9.790;2023-11-19T07:16:23;99636.81;;;11.29;100.00
39891;BME280;25564;53.312;9.790;2023-11-19T07:18:55;99604.91;;;11.07;100.00
39891;BME280;25564;53.312;9.790;2023-11-19T07:21:27;99626.44;;;11.23;100.00
39891;BME280;25564;53.312;9.790;2023-11-19T07:23:59;99616.03;;;11.17;100.00
39891;BME280;25564;53.312;9.790;2023-11-19T07:26:31;99607.16;;;11.18;100.00
39891;BME280;25564;53.312;9.790;2023-11-19T07:29:03;99622.75;;;11.27;100.00
39891;BME280;25564;53.312;9.790;2023-11-19T07:31:34;99628.81;;;11.30;100.00
39891;BME280;25564;53.312;9.790;2023-11-19T07:34:06;99630.59;;;11.30;100.00
39891;BME280;25564;53.312;9.790;2023-11-19T07:36:37;99637.53;;;11.34;100.00
39891;BME280;25564;53.312;9.790;2023-11-19T07:39:09;99625.91;;;11.36;100.00
39891;BME280;25564;53.312;9.790;2023-11-19T07:41:41;99600.91;;;11.19;100.00
39891;BME280;25564;53.312;9.790;2023-11-19T07:44:12;99628.34;;;11.42;100.00
39891;BME280;25564;53.312;9.790;2023-11-19T07:46:43;99632.50;;;11.48;100.00
39891;BME280;25564;53.312;9.790;2023-11-19T07:49:16;99626.16;;;11.52;100.00
39891;BME280;25564;53.312;9.790;2023-11-19T07:51:47;99637.34;;;11.60;100.00
39891;BME280;25564;53.312;9.790;2023-11-19T07:54:18;99645.09;;;11.66;100.00
39891;BME280;25564;53.312;9.790;2023-11-19T07:56:52;99665.91;;;11.78;100.00
39891;BME280;25564;53.312;9.790;2023-11-19T07:59:24;99633.66;;;11.64;100.00
39891;BME280;25564;53.312;9.790;2023-11-19T08:01:55;99659.75;;;11.76;100.00
39891;BME280;25564;53.312;9.790;2023-11-19T08:04:26;99663.34;;;11.75;100.00
39891;BME280;25564;53.312;9.790;2023-11-19T08:06:58;99638.97;;;11.64;100.00
39891;BME280;25564;53.312;9.790;2023-11-19T08:09:29;99651.75;;;11.78;100.00
39891;BME280;25564;53.312;9.790;2023-11-19T08:12:01;99638.16;;;11.62;100.00
39891;BME280;25564;53.312;9.790;2023-11-19T08:14:32;99650.28;;;11.69;100.00
39891;BME280;25564;53.312;9.790;2023-11-19T08:17:04;99668.44;;;11.82;100.00
39891;BME280;25564;53.312;9.790;2023-11-19T08:19:35;99677.97;;;11.87;100.00
39891;BME280;25564;53.312;9.790;2023-11-19T08:22:07;99664.38;;;11.71;100.00
39891;BME280;25564;53.312;9.790;2023-11-19T08:24:38;99659.31;;;11.65;100.00
39891;BME280;25564;53.312;9.790;2023-11-19T08:27:09;99661.84;;;11.68;100.00
39891;BME280;25564;53.312;9.790;2023-11-19T08:29:41;99650.75;;;11.57;100.00
39891;BME280;25564;53.312;9.790;2023-11-19T08:32:12;99670.91;;;11.63;100.00
39891;BME280;25564;53.312;9.790;2023-11-19T08:34:44;99700.66;;;11.72;100.00
39891;BME280;25564;53.312;9.790;2023-11-19T08:37:15;99658.72;;;11.57;100.00
39891;BME280;25564;53.312;9.790;2023-11-19T08:39:50;99682.00;;;11.74;100.00
39891;BME280;25564;53.312;9.790;2023-11-19T08:42:21;99662.25;;;11.58;100.00
39891;BME280;25564;53.312;9.790;2023-11-19T08:44:53;99688.66;;;11.62;100.00
39891;BME280;25564;53.312;9.790;2023-11-19T08:47:25;99659.19;;;11.45;100.00
39891;BME280;25564;53.312;9.790;2023-11-19T08:49:57;99691.31;;;11.62;100.00
39891;BME280;25564;53.312;9.790;2023-11-19T08:52:31;99694.47;;;11.72;100.00
39891;BME280;25564;53.312;9.790;2023-11-19T08:55:06;99692.69;;;11.72;100.00
39891;BME280;25564;53.312;9.790;2023-11-19T08:57:37;99687.66;;;11.65;100.00
39891;BME280;25564;53.312;9.790;2023-11-19T09:00:09;99688.59;;;11.64;100.00
39891;BME280;25564;53.312;9.790;2023-11-19T09:02:41;99682.47;;;11.62;100.00
39891;BME280;25564;53.312;9.790;2023-11-19T09:05:12;99682.97;;;11.71;100.00
39891;BME280;25564;53.312;9.790;2023-11-19T09:07:44;99682.88;;;11.74;100.00
39891;BME280;25564;53.312;9.790;2023-11-19T09:10:16;99682.78;;;11.77;100.00
39891;BME280;25564;53.312;9.790;2023-11-19T09:12:47;99710.38;;;11.97;100.00
39891;BME280;25564;53.312;9.790;2023-11-19T09:15:18;99691.31;;;11.86;100.00
39891;BME280;25564;53.312;9.790;2023-11-19T09:17:50;99701.84;;;11.89;100.00
39891;BME280;25564;53.312;9.790;2023-11-19T09:20:21;99713.16;;;11.94;100.00
39891;BME280;25564;53.312;9.790;2023-11-19T09:22:53;99701.84;;;11.89;100.00
39891;BME280;25564;53.312;9.790;2023-11-19T09:25:24;99701.84;;;11.89;100.00
39891;BME280;25564;53.312;9.790;2023-11-19T09:27:56;99712.34;;;11.92;100.00
39891;BME280;25564;53.312;9.790;2023-11-19T09:30:27;99697.50;;;11.86;100.00
39891;BME280;25564;53.312;9.790;2023-11-19T09:32:58;99697.94;;;11.97;100.00
39891;BME280;25564;53.312;9.790;2023-11-19T09:35:31;99700.25;;;12.06;100.00
39891;BME280;25564;53.312;9.790;2023-11-19T09:38:02;99721.66;;;12.25;100.00
39891;BME280;25564;53.312;9.790;2023-11-19T09:40:35;99712.88;;;12.23;100.00
39891;BME280;25564;53.312;9.790;2023-11-19T09:43:11;99713.97;;;12.39;100.00
39891;BME280;25564;53.312;9.790;2023-11-19T09:45:50;99695.91;;;12.48;100.00
39891;BME280;25564;53.312;9.790;2023-11-19T09:48:24;99707.72;;;12.61;100.00
39891;BME280;25564;53.312;9.790;2023-11-19T09:50:57;99725.00;;;12.72;100.00
39891;BME280;25564;53.312;9.790;2023-11-19T09:53:30;99681.38;;;12.55;100.00
39891;BME280;25564;53.312;9.790;2023-11-19T09:56:02;99722.13;;;12.77;100.00
39891;BME280;25564;53.312;9.790;2023-11-19T09:58:34;99734.31;;;12.83;100.00
39891;BME280;25564;53.312;9.790;2023-11-19T10:01:05;99732.31;;;12.88;100.00
39891;BME280;25564;53.312;9.790;2023-11-19T10:03:41;99730.47;;;12.90;100.00
39891;BME280;25564;53.312;9.790;2023-11-19T10:06:15;99708.69;;;12.80;100.00
39891;BME280;25564;53.312;9.790;2023-11-19T10:08:47;99741.84;;;12.93;100.00
39891;BME280;25564;53.312;9.790;2023-11-19T10:11:19;99725.13;;;12.90;100.00
39891;BME280;25564;53.312;9.790;2023-11-19T10:13:53;99731.81;;;13.00;100.00
39891;BME280;25564;53.312;9.790;2023-11-19T10:16:29;99727.53;;;12.96;100.00
39891;BME280;25564;53.312;9.790;2023-11-19T10:19:04;99690.63;;;12.66;100.00
39891;BME280;25564;53.312;9.790;2023-11-19T10:21:36;99728.88;;;12.86;100.00
39891;BME280;25564;53.312;9.790;2023-11-19T10:24:08;99715.28;;;12.71;100.00
39891;BME280;25564;53.312;9.790;2023-11-19T10:26:40;99731.91;;;12.76;100.00
39891;BME280;25564;53.312;9.790;2023-11-19T10:29:13;99731.97;;;12.75;100.00
39891;BME280;25564;53.312;9.790;2023-11-19T10:31:56;99721.59;;;12.69;100.00
39891;BME280;25564;53.312;9.790;2023-11-19T10:35:07;99716.97;;;12.52;100.00
39891;BME280;25564;53.312;9.790;2023-11-19T10:37:39;99741.78;;;12.53;100.00
39891;BME280;25564;53.312;9.790;2023-11-19T10:40:11;99724.22;;;12.49;100.00
39891;BME280;25564;53.312;9.790;2023-11-19T10:42:43;99731.56;;;12.64;100.00
39891;BME280;25564;53.312;9.790;2023-11-19T10:45:23;99713.72;;;12.66;100.00
39891;BME280;25564;53.312;9.790;2023-11-19T10:47:56;99739.78;;;12.80;100.00
39891;BME280;25564;53.312;9.790;2023-11-19T10:50:28;99731.78;;;12.80;100.00
39891;BME280;25564;53.312;9.790;2023-11-19T10:53:04;99733.19;;;12.88;100.00
39891;BME280;25564;53.312;9.790;2023-11-19T10:55:37;99734.94;;;12.89;100.00
39891;BME280;25564;53.312;9.790;2023-11-19T10:58:15;99741.25;;;12.87;100.00
39891;BME280;25564;53.312;9.790;2023-11-19T11:00:52;99716.41;;;12.66;100.00
39891;BME280;25564;53.312;9.790;2023-11-19T11:03:25;99738.44;;;12.69;100.00
39891;BME280;25564;53.312;9.790;2023-11-19T11:06:03;99703.47;;;12.36;100.00
39891;BME280;25564;53.312;9.790;2023-11-19T11:08:36;99733.41;;;12.41;100.00
39891;BME280;25564;53.312;9.790;2023-11-19T11:11:08;99742.72;;;12.52;100.00
39891;BME280;25564;53.312;9.790;2023-11-19T11:13:44;99736.47;;;12.53;100.00
39891;BME280;25564;53.312;9.790;2023-11-19T11:16:19;99723.78;;;12.59;100.00
39891;BME280;25564;53.312;9.790;2023-11-19T11:18:51;99725.69;;;12.56;100.00
39891;BME280;25564;53.312;9.790;2023-11-19T11:21:25;99715.97;;;12.55;100.00
39891;BME280;25564;53.312;9.790;2023-11-19T11:32:37;99740.03;;;12.73;100.00
39891;BME280;25564;53.312;9.790;2023-11-19T11:35:31;99749.19;;;12.66;100.00
39891;BME280;25564;53.312;9.790;2023-11-19T11:38:07;99744.88;;;12.64;100.00
39891;BME280;25564;53.312;9.790;2023-11-19T11:40:38;99735.47;;;12.55;100.00
39891;BME280;25564;53.312;9.790;2023-11-19T11:43:50;99750.13;;;12.65;100.00
39891;BME280;25564;53.312;9.790;2023-11-19T11:49:10;99736.34;;;12.56;100.00
39891;BME280;25564;53.312;9.790;2023-11-19T11:57:20;99738.88;;;12.59;100.00
39891;BME280;25564;53.312;9.790;2023-11-19T11:59:54;99723.50;;;12.45;100.00
39891;BME280;25564;53.312;9.790;2023-11-19T12:02:26;99735.38;;;12.36;100.00
39891;BME280;25564;53.312;9.790;2023-11-19T12:04:57;99735.38;;;12.36;100.00
39891;BME280;25564;53.312;9.790;2023-11-19T12:07:29;99752.34;;;12.34;100.00
39891;BME280;25564;53.312;9.790;2023-11-19T12:10:08;99735.50;;;12.33;100.00
39891;BME280;25564;53.312;9.790;2023-11-19T12:12:40;99741.69;;;12.34;100.00
39891;BME280;25564;53.312;9.790;2023-11-19T12:15:13;99729.50;;;12.28;100.00
39891;BME280;25564;53.312;9.790;2023-11-19T12:17:48;99730.44;;;12.27;100.00
39891;BME280;25564;53.312;9.790;2023-11-19T12:20:25;99739.28;;;12.28;100.00
39891;BME280;25564;53.312;9.790;2023-11-19T12:23:04;99729.69;;;12.24;100.00
39891;BME280;25564;53.312;9.790;2023-11-19T12:25:37;99720.34;;;12.14;100.00
39891;BME280;25564;53.312;9.790;2023-11-19T12:28:12;99730.56;;;12.24;100.00
39891;BME280;25564;53.312;9.790;2023-11-19T12:30:45;99729.88;;;12.19;100.00
39891;BME280;25564;53.312;9.790;2023-11-19T12:33:17;99706.66;;;12.01;100.00
39891;BME280;25564;53.312;9.790;2023-11-19T12:35:49;99724.88;;;12.11;100.00
39891;BME280;25564;53.312;9.790;2023-11-19T12:38:21;99730.56;;;12.24;100.00
39891;BME280;25564;53.312;9.790;2023-11-19T12:41:02;99726.09;;;12.25;100.00
39891;BME280;25564;53.312;9.790;2023-11-19T12:43:35;99737.97;;;12.16;100.00
39891;BME280;25564;53.312;9.790;2023-11-19T12:46:23;99724.91;;;12.10;100.00
39891;BME280;25564;53.312;9.790;2023-11-19T12:48:55;99720.53;;;12.09;100.00
39891;BME280;25564;53.312;9.790;2023-11-19T12:51:32;99701.59;;;11.95;100.00
39891;BME280;25564;53.312;9.790;2023-11-19T12:54:04;99704.56;;;11.87;100.00
39891;BME280;25564;53.312;9.790;2023-11-19T12:56:36;99705.53;;;11.85;100.00
39891;BME280;25564;53.312;9.790;2023-11-19T12:59:15;99713.28;;;11.91;100.00
39891;BME280;25564;53.312;9.790;2023-11-19T13:01:59;99707.22;;;11.87;100.00
39891;BME280;25564;53.312;9.790;2023-11-19T13:04:31;99696.16;;;11.74;100.00
39891;BME280;25564;53.312;9.790;2023-11-19T13:07:02;99714.56;;;11.81;100.00
39891;BME280;25564;53.312;9.790;2023-11-19T13:09:37;99690.03;;;11.72;100.00
39891;BME280;25564;53.312;9.790;2023-11-19T13:12:15;99674.19;;;11.69;100.00
39891;BME280;25564;53.312;9.790;2023-11-19T13:14:46;99703.81;;;11.84;100.00
39891;BME280;25564;53.312;9.790;2023-11-19T13:17:18;99715.69;;;11.97;100.00
39891;BME280;25564;53.312;9.790;2023-11-19T13:19:50;99718.91;;;12.05;100.00
39891;BME280;25564;53.312;9.790;2023-11-19T13:22:22;99700.44;;;12.02;100.00
39891;BME280;25564;53.312;9.790;2023-11-19T13:24:53;99695.91;;;12.04;100.00
39891;BME280;25564;53.312;9.790;2023-11-19T13:27:25;99710.63;;;12.13;100.00
39891;BME280;25564;53.312;9.790;2023-11-19T13:29:56;99705.06;;;11.97;100.00
39891;BME280;25564;53.312;9.790;2023-11-19T13:32:29;99695.34;;;11.96;100.00
39891;BME280;25564;53.312;9.790;2023-11-19T13:35:01;99697.31;;;11.91;100.00
39891;BME280;25564;53.312;9.790;2023-11-19T13:37:34;99699.88;;;11.94;100.00
39891;BME280;25564;53.312;9.790;2023-11-19T13:40:09;99684.03;;;11.91;100.00